sensor_id;sensor_type;location;lat;lon;timestamp;pressure;altitude;pressure_sealevel;temperature;humidity
8318;BME280;4196;48.926;8.964;2023-05-12T00:02:41;98775.78;;;10.42;100.00
8318;BME280;4196;48.926;8.964;2023-05-12T00:05:27;98764.59;;;10.38;100.00
8318;BME280;4196;48.926;8.964;2023-05-12T00:08:15;98762.00;;;10.38;100.00
8318;BME280;4196;48.926;8.964;2023-05-12T00:11:02;98749.09;;;10.35;100.00
8318;BME280;4196;48.926;8.964;2023-05-12T00:13:49;98735.34;;;10.24;100.00
8318;BME280;4196;48.926;8.964;2023-05-12T00:16:36;98750.81;;;10.33;100.00
8318;BME280;4196;48.926;8.964;2023-05-12T00:19:22;98754.25;;;10.38;100.00
8318;BME280;4196;48.926;8.964;2023-05-12T00:22:09;98729.16;;;10.45;100.00
8318;BME280;4196;48.926;8.964;2023-05-12T00:24:56;98751.38;;;10.74;100.00
8318;BME280;4196;48.926;8.964;2023-05-12T00:27:43;98746.25;;;10.69;100.00
8318;BME280;4196;48.926;8.964;2023-05-12T00:30:29;98723.91;;;10.56;100.00
8318;BME280;4196;48.926;8.964;2023-05-12T00:33:15;98728.19;;;10.60;100.00
8318;BME280;4196;48.926;8.964;2023-05-12T00:36:02;98754.03;;;10.66;100.00
8318;BME280;4196;48.926;8.964;2023-05-12T00:38:49;98749.78;;;10.59;100.00
8318;BME280;4196;48.926;8.964;2023-05-12T00:41:35;98745.44;;;10.61;100.00
8318;BME280;4196;48.926;8.964;2023-05-12T00:44:22;98728.28;;;10.51;100.00
8318;BME280;4196;48.926;8.964;2023-05-12T00:47:08;98723.13;;;10.45;100.00
8318;BME280;4196;48.926;8.964;2023-05-12T00:49:55;98760.03;;;10.73;100.00
8318;BME280;4196;48.926;8.964;2023-05-12T00:52:42;98762.72;;;10.59;100.00
8318;BME280;4196;48.926;8.964;2023-05-12T00:55:29;98755.84;;;10.55;100.00
8318;BME280;4196;48.926;8.964;2023-05-12T00:58:16;98736.94;;;10.47;100.00
8318;BME280;4196;48.926;8.964;2023-05-12T01:01:03;98725.66;;;10.54;100.00
8318;BME280;4196;48.926;8.964;2023-05-12T01:03:50;98756.66;;;10.61;100.00
8318;BME280;4196;48.926;8.964;2023-05-12T01:07:06;98759.25;;;10.60;100.00
8318;BME280;4196;48.926;8.964;2023-05-12T01:09:56;98743.78;;;10.49;100.00
8318;BME280;4196;48.926;8.964;2023-05-12T01:12:44;98731.81;;;10.34;100.00
8318;BME280;4196;48.926;8.964;2023-05-12T01:15:31;98761.09;;;10.46;100.00
8318;BME280;4196;48.926;8.964;2023-05-12T01:18:18;98706.09;;;10.13;100.00
8318;BME280;4196;48.926;8.964;2023-05-12T01:21:06;98761.03;;;10.55;100.00
8318;BME280;4196;48.926;8.964;2023-05-12T01:23:57;98762.78;;;10.50;100.00
8318;BME280;4196;48.926;8.964;2023-05-12T01:26:46;98754.97;;;10.60;100.00
8318;BME280;4196;48.926;8.964;2023-05-12T01:29:34;98728.28;;;10.51;100.00
8318;BME280;4196;48.926;8.964;2023-05-12T01:32:21;98754.00;;;10.69;100.00
8318;BME280;4196;48.926;8.964;2023-05-12T01:35:07;98755.59;;;10.85;100.00
8318;BME280;4196;48.926;8.964;2023-05-12T01:37:56;98754.81;;;10.79;100.00
8318;BME280;4196;48.926;8.964;2023-05-12T01:40:42;98748.78;;;10.75;100.00
8318;BME280;4196;48.926;8.964;2023-05-12T01:43:29;98745.34;;;10.73;100.00
8318;BME280;4196;48.926;8.964;2023-05-12T01:46:16;98738.47;;;10.69;100.00
8318;BME280;4196;48.926;8.964;2023-05-12T01:49:02;98761.59;;;10.91;100.00
8318;BME280;4196;48.926;8.964;2023-05-12T01:51:49;98756.41;;;10.89;100.00
8318;BME280;4196;48.926;8.964;2023-05-12T01:54:41;98758.31;;;10.72;100.00
8318;BME280;4196;48.926;8.964;2023-05-12T01:57:29;98764.34;;;10.75;100.00
8318;BME280;4196;48.926;8.964;2023-05-12T02:00:18;98726.59;;;10.44;100.00
8318;BME280;4196;48.926;8.964;2023-05-12T02:03:06;98727.47;;;10.41;100.00
8318;BME280;4196;48.926;8.964;2023-05-12T02:05:53;98752.38;;;10.57;100.00
8318;BME280;4196;48.926;8.964;2023-05-12T02:08:39;98752.41;;;10.51;100.00
8318;BME280;4196;48.926;8.964;2023-05-12T02:11:28;98746.38;;;10.51;100.00
8318;BME280;4196;48.926;8.964;2023-05-12T02:14:14;98735.31;;;10.30;100.00
8318;BME280;4196;48.926;8.964;2023-05-12T02:17:01;98756.81;;;10.43;100.00
8318;BME280;4196;48.926;8.964;2023-05-12T02:19:49;98728.47;;;10.20;100.00
8318;BME280;4196;48.926;8.964;2023-05-12T02:22:36;98754.25;;;10.37;100.00
8318;BME280;4196;48.926;8.964;2023-05-12T02:25:22;98745.59;;;10.43;100.00
8318;BME280;4196;48.926;8.964;2023-05-12T02:28:09;98745.63;;;10.33;100.00
8318;BME280;4196;48.926;8.964;2023-05-12T02:30:58;98752.53;;;10.39;100.00
8318;BME280;4196;48.926;8.964;2023-05-12T02:33:45;98737.91;;;10.29;100.00
8318;BME280;4196;48.926;8.964;2023-05-12T02:36:33;98755.16;;;10.31;100.00
8318;BME280;4196;48.926;8.964;2023-05-12T02:39:19;98720.78;;;10.06;100.00
8318;BME280;4196;48.926;8.964;2023-05-12T02:42:06;98718.16;;;10.11;100.00
8318;BME280;4196;48.926;8.964;2023-05-12T02:44:52;98754.34;;;10.20;100.00
8318;BME280;4196;48.926;8.964;2023-05-12T02:47:38;98725.09;;;10.06;100.00
8318;BME280;4196;48.926;8.964;2023-05-12T02:50:25;98714.75;;;10.03;100.00
8318;BME280;4196;48.926;8.964;2023-05-12T02:53:11;98732.78;;;10.18;100.00
8318;BME280;4196;48.926;8.964;2023-05-12T02:55:57;98722.50;;;10.09;100.00
8318;BME280;4196;48.926;8.964;2023-05-12T02:58:44;98755.19;;;10.25;100.00
8318;BME280;4196;48.926;8.964;2023-05-12T03:01:31;98744.81;;;10.28;100.00
8318;BME280;4196;48.926;8.964;2023-05-12T03:04:18;98728.44;;;10.19;100.00
8318;BME280;4196;48.926;8.964;2023-05-12T03:07:04;98747.41;;;10.22;100.00
8318;BME280;4196;48.926;8.964;2023-05-12T03:09:52;98748.28;;;10.18;100.00
8318;BME280;4196;48.926;8.964;2023-05-12T03:12:40;98690.69;;;9.91;100.00
8318;BME280;4196;48.926;8.964;2023-05-12T03:15:26;98709.63;;;9.97;100.00
8318;BME280;4196;48.926;8.964;2023-05-12T03:18:13;98741.38;;;10.19;100.00
8318;BME280;4196;48.926;8.964;2023-05-12T03:21:00;98748.34;;;10.10;100.00
8318;BME280;4196;48.926;8.964;2023-05-12T03:23:46;98736.28;;;10.05;100.00
8318;BME280;4196;48.926;8.964;2023-05-12T03:26:32;98716.56;;;9.88;100.00
8318;BME280;4196;48.926;8.964;2023-05-12T03:29:19;98755.19;;;10.19;100.00
8318;BME280;4196;48.926;8.964;2023-05-12T03:32:05;98750.84;;;10.24;100.00
8318;BME280;4196;48.926;8.964;2023-05-12T03:34:52;98747.44;;;10.18;100.00
8318;BME280;4196;48.926;8.964;2023-05-12T03:37:39;98751.72;;;10.29;100.00
8318;BME280;4196;48.926;8.964;2023-05-12T03:40:26;98756.84;;;10.37;100.00
8318;BME280;4196;48.926;8.964;2023-05-12T03:43:13;98741.31;;;10.37;100.00
8318;BME280;4196;48.926;8.964;2023-05-12T03:45:59;98720.69;;;10.22;100.00
8318;BME280;4196;48.926;8.964;2023-05-12T03:48:46;98740.53;;;10.27;100.00
8318;BME280;4196;48.926;8.964;2023-05-12T03:51:34;98754.16;;;10.48;100.00
8318;BME280;4196;48.926;8.964;2023-05-12T03:54:20;98749.84;;;10.50;100.00
8318;BME280;4196;48.926;8.964;2023-05-12T03:57:07;98745.47;;;10.58;100.00
8318;BME280;4196;48.926;8.964;2023-05-12T03:59:54;98737.69;;;10.61;100.00
8318;BME280;4196;48.926;8.964;2023-05-12T04:02:40;98749.78;;;10.57;100.00
8318;BME280;4196;48.926;8.964;2023-05-12T04:05:27;98675.06;;;10.10;100.00
8318;BME280;4196;48.926;8.964;2023-05-12T04:08:13;98693.97;;;10.18;100.00
8318;BME280;4196;48.926;8.964;2023-05-12T04:11:00;98748.16;;;10.44;100.00
8318;BME280;4196;48.926;8.964;2023-05-12T04:13:47;98751.59;;;10.45;100.00
8318;BME280;4196;48.926;8.964;2023-05-12T04:16:33;98734.47;;;10.27;100.00
8318;BME280;4196;48.926;8.964;2023-05-12T04:19:20;98724.16;;;10.21;100.00
8318;BME280;4196;48.926;8.964;2023-05-12T04:22:07;98689.78;;;10.02;100.00
8318;BME280;4196;48.926;8.964;2023-05-12T04:24:53;98735.31;;;10.30;100.00
8318;BME280;4196;48.926;8.964;2023-05-12T04:27:40;98739.59;;;10.33;100.00
8318;BME280;4196;48.926;8.964;2023-05-12T04:30:27;98744.75;;;10.37;100.00
8318;BME280;4196;48.926;8.964;2023-05-12T04:33:13;98752.50;;;10.40;100.00
8318;BME280;4196;48.926;8.964;2023-05-12T04:36:00;98749.94;;;10.39;100.00
8318;BME280;4196;48.926;8.964;2023-05-12T04:38:47;98751.56;;;10.49;100.00
8318;BME280;4196;48.926;8.964;2023-05-12T04:41:34;98718.00;;;10.38;100.00
8318;BME280;4196;48.926;8.964;2023-05-12T04:44:21;98757.47;;;10.68;100.00
8318;BME280;4196;48.926;8.964;2023-05-12T04:47:09;98760.91;;;10.70;100.00
8318;BME280;4196;48.926;8.964;2023-05-12T04:49:56;98729.94;;;10.58;100.00
8318;BME280;4196;48.926;8.964;2023-05-12T04:52:42;98769.44;;;10.81;100.00
8318;BME280;4196;48.926;8.964;2023-05-12T04:55:29;98772.00;;;10.87;100.00
8318;BME280;4196;48.926;8.964;2023-05-12T04:58:16;98771.19;;;10.79;100.00
8318;BME280;4196;48.926;8.964;2023-05-12T05:01:03;98748.00;;;10.64;100.00
8318;BME280;4196;48.926;8.964;2023-05-12T05:03:51;98776.34;;;10.81;100.00
8318;BME280;4196;48.926;8.964;2023-05-12T05:06:38;98771.91;;;10.95;100.00
8318;BME280;4196;48.926;8.964;2023-05-12T05:09:25;98777.88;;;11.06;100.00
8318;BME280;4196;48.926;8.964;2023-05-12T05:12:12;98767.53;;;11.05;100.00
8318;BME280;4196;48.926;8.964;2023-05-12T05:14:59;98776.09;;;11.13;100.00
8318;BME280;4196;48.926;8.964;2023-05-12T05:17:45;98778.66;;;11.13;100.00
8318;BME280;4196;48.926;8.964;2023-05-12T05:20:35;98773.53;;;11.08;100.00
8318;BME280;4196;48.926;8.964;2023-05-12T05:23:28;98764.91;;;11.06;100.00
8318;BME280;4196;48.926;8.964;2023-05-12T05:26:14;98788.13;;;11.16;100.00
8318;BME280;4196;48.926;8.964;2023-05-12T05:29:03;98774.38;;;11.12;100.00
8318;BME280;4196;48.926;8.964;2023-05-12T05:31:50;98787.19;;;11.23;100.00
8318;BME280;4196;48.926;8.964;2023-05-12T05:34:38;98784.75;;;11.12;100.00
8318;BME280;4196;48.926;8.964;2023-05-12T05:37:24;98744.31;;;10.94;100.00
8318;BME280;4196;48.926;8.964;2023-05-12T05:40:14;98782.94;;;11.17;100.00
8318;BME280;4196;48.926;8.964;2023-05-12T05:43:00;98754.59;;;11.00;100.00
8318;BME280;4196;48.926;8.964;2023-05-12T05:45:47;98785.53;;;11.17;100.00
8318;BME280;4196;48.926;8.964;2023-05-12T05:48:34;98786.47;;;11.10;100.00
8318;BME280;4196;48.926;8.964;2023-05-12T05:51:27;98769.25;;;11.03;100.00
8318;BME280;4196;48.926;8.964;2023-05-12T05:54:14;98775.19;;;11.17;100.00
8318;BME280;4196;48.926;8.964;2023-05-12T05:57:00;98796.78;;;11.16;100.00
8318;BME280;4196;48.926;8.964;2023-05-12T05:59:49;98761.38;;;11.17;100.00
8318;BME280;4196;48.926;8.964;2023-05-12T06:02:35;98794.88;;;11.33;100.00
8318;BME280;4196;48.926;8.964;2023-05-12T06:05:23;98800.06;;;11.35;100.00
8318;BME280;4196;48.926;8.964;2023-05-12T06:08:09;98778.50;;;11.31;100.00
8318;BME280;4196;48.926;8.964;2023-05-12T06:10:58;98782.75;;;11.35;100.00
8318;BME280;4196;48.926;8.964;2023-05-12T06:13:45;98798.16;;;11.51;100.00
8318;BME280;4196;48.926;8.964;2023-05-12T06:16:31;98758.63;;;11.30;100.00
8318;BME280;4196;48.926;8.964;2023-05-12T06:19:17;98806.69;;;11.64;100.00
8318;BME280;4196;48.926;8.964;2023-05-12T06:22:04;98774.00;;;11.49;100.00
8318;BME280;4196;48.926;8.964;2023-05-12T06:24:50;98802.25;;;11.70;100.00
8318;BME280;4196;48.926;8.964;2023-05-12T06:27:37;98810.88;;;11.75;100.00
8318;BME280;4196;48.926;8.964;2023-05-12T06:30:24;98803.16;;;11.66;100.00
8318;BME280;4196;48.926;8.964;2023-05-12T06:33:13;98796.41;;;11.53;100.00
8318;BME280;4196;48.926;8.964;2023-05-12T06:35:59;98791.19;;;11.56;100.00
8318;BME280;4196;48.926;8.964;2023-05-12T06:38:46;98822.03;;;11.83;100.00
8318;BME280;4196;48.926;8.964;2023-05-12T06:41:32;98737.69;;;11.49;100.00
8318;BME280;4196;48.926;8.964;2023-05-12T06:44:18;98789.78;;;12.03;100.00
8318;BME280;4196;48.926;8.964;2023-05-12T06:47:10;98819.78;;;12.25;100.00
8318;BME280;4196;48.926;8.964;2023-05-12T06:49:57;98795.56;;;12.26;100.00
8318;BME280;4196;48.926;8.964;2023-05-12T06:52:43;98790.38;;;12.26;100.00
8318;BME280;4196;48.926;8.964;2023-05-12T06:55:29;98788.69;;;12.21;100.00
8318;BME280;4196;48.926;8.964;2023-05-12T06:58:16;98797.38;;;12.18;100.00
8318;BME280;4196;48.926;8.964;2023-05-12T07:01:04;98792.97;;;12.25;100.00
8318;BME280;4196;48.926;8.964;2023-05-12T07:03:51;98826.66;;;12.29;100.00
8318;BME280;4196;48.926;8.964;2023-05-12T07:06:37;98812.78;;;12.33;100.00
8318;BME280;4196;48.926;8.964;2023-05-12T07:09:24;98799.66;;;12.43;100.00
8318;BME280;4196;48.926;8.964;2023-05-12T07:12:10;98804.72;;;12.52;100.00
8318;BME280;4196;48.926;8.964;2023-05-12T07:14:57;98789.25;;;12.43;100.00
8318;BME280;4196;48.926;8.964;2023-05-12T07:17:44;98795.06;;;12.60;100.00
8318;BME280;4196;48.926;8.964;2023-05-12T07:20:30;98800.09;;;12.69;100.00
8318;BME280;4196;48.926;8.964;2023-05-12T07:23:17;98798.47;;;12.62;100.00
8318;BME280;4196;48.926;8.964;2023-05-12T07:26:05;98799.06;;;12.81;100.00
8318;BME280;4196;48.926;8.964;2023-05-12T07:28:51;98778.31;;;12.79;100.00
8318;BME280;4196;48.926;8.964;2023-05-12T07:31:38;98788.66;;;12.81;100.00
8318;BME280;4196;48.926;8.964;2023-05-12T07:34:25;98744.03;;;12.57;100.00
8318;BME280;4196;48.926;8.964;2023-05-12T07:37:11;98815.13;;;13.06;100.00
8318;BME280;4196;48.926;8.964;2023-05-12T07:39:58;98820.25;;;13.09;100.00
8318;BME280;4196;48.926;8.964;2023-05-12T07:42:44;98811.56;;;13.10;100.00
8318;BME280;4196;48.926;8.964;2023-05-12T07:45:31;98786.59;;;13.01;100.00
8318;BME280;4196;48.926;8.964;2023-05-12T07:48:17;98798.69;;;13.04;100.00
8318;BME280;4196;48.926;8.964;2023-05-12T07:51:05;98799.44;;;13.12;100.00
8318;BME280;4196;48.926;8.964;2023-05-12T07:53:51;98802.56;;;13.33;100.00
8318;BME280;4196;48.926;8.964;2023-05-12T07:56:40;98798.66;;;13.57;100.00
8318;BME280;4196;48.926;8.964;2023-05-12T07:59:26;98820.56;;;13.90;100.00
8318;BME280;4196;48.926;8.964;2023-05-12T08:02:12;98780.69;;;13.88;100.00
8318;BME280;4196;48.926;8.964;2023-05-12T08:04:59;98797.56;;;14.12;100.00
8318;BME280;4196;48.926;8.964;2023-05-12T08:07:46;98825.00;;;14.26;100.00
8318;BME280;4196;48.926;8.964;2023-05-12T08:10:32;98800.34;;;14.43;100.00
8318;BME280;4196;48.926;8.964;2023-05-12T08:13:18;98775.06;;;14.48;98.30
8318;BME280;4196;48.926;8.964;2023-05-12T08:16:05;98787.53;;;14.72;98.70
8318;BME280;4196;48.926;8.964;2023-05-12T08:18:52;98769.88;;;14.84;100.00
8318;BME280;4196;48.926;8.964;2023-05-12T08:21:38;98779.69;;;15.10;98.69
8318;BME280;4196;48.926;8.964;2023-05-12T08:24:25;98817.31;;;15.34;99.04
8318;BME280;4196;48.926;8.964;2023-05-12T08:27:12;98818.78;;;15.44;96.48
8318;BME280;4196;48.926;8.964;2023-05-12T08:29:58;98796.34;;;15.37;91.47
8318;BME280;4196;48.926;8.964;2023-05-12T08:32:45;98814.50;;;15.07;93.96
8318;BME280;4196;48.926;8.964;2023-05-12T08:35:31;98767.63;;;15.04;96.25
8318;BME280;4196;48.926;8.964;2023-05-12T08:38:18;98794.66;;;15.36;99.12
8318;BME280;4196;48.926;8.964;2023-05-12T08:44:32;98783.47;;;15.63;89.54
8318;BME280;4196;48.926;8.964;2023-05-12T08:47:20;98798.13;;;16.00;89.67
8318;BME280;4196;48.926;8.964;2023-05-12T08:50:09;98797.94;;;16.36;88.89
8318;BME280;4196;48.926;8.964;2023-05-12T08:52:55;98805.78;;;16.64;80.84
8318;BME280;4196;48.926;8.964;2023-05-12T08:55:42;98823.69;;;16.78;85.05
8318;BME280;4196;48.926;8.964;2023-05-12T08:58:47;98819.44;;;17.02;84.27
8318;BME280;4196;48.926;8.964;2023-05-12T09:01:34;98819.16;;;17.36;83.70
8318;BME280;4196;48.926;8.964;2023-05-12T09:04:22;98814.63;;;17.41;85.11
8318;BME280;4196;48.926;8.964;2023-05-12T09:07:09;98812.91;;;17.65;83.80
8318;BME280;4196;48.926;8.964;2023-05-12T09:09:57;98818.06;;;17.68;79.40
8318;BME280;4196;48.926;8.964;2023-05-12T09:12:45;98821.97;;;17.30;79.42
8318;BME280;4196;48.926;8.964;2023-05-12T09:15:41;98784.47;;;17.04;81.92
8318;BME280;4196;48.926;8.964;2023-05-12T09:18:50;98824.22;;;17.41;80.08
8318;BME280;4196;48.926;8.964;2023-05-12T09:21:37;98822.81;;;17.30;74.87
8318;BME280;4196;48.926;8.964;2023-05-12T09:24:36;98819.59;;;17.24;74.60
8318;BME280;4196;48.926;8.964;2023-05-12T09:27:27;98774.13;;;17.01;77.81
8318;BME280;4196;48.926;8.964;2023-05-12T09:30:14;98828.38;;;17.21;74.01
8318;BME280;4196;48.926;8.964;2023-05-12T09:33:08;98823.94;;;16.40;76.74
8318;BME280;4196;48.926;8.964;2023-05-12T09:35:55;98825.06;;;16.32;77.44
8318;BME280;4196;48.926;8.964;2023-05-12T09:38:41;98819.34;;;16.19;82.16
8318;BME280;4196;48.926;8.964;2023-05-12T09:41:39;98817.16;;;16.35;81.70
8318;BME280;4196;48.926;8.964;2023-05-12T09:44:26;98824.59;;;16.47;81.89
8318;BME280;4196;48.926;8.964;2023-05-12T09:47:14;98820.41;;;16.41;83.18
8318;BME280;4196;48.926;8.964;2023-05-12T09:50:03;98797.91;;;16.65;80.98
8318;BME280;4196;48.926;8.964;2023-05-12T09:52:50;98809.47;;;17.13;77.20
8318;BME280;4196;48.926;8.964;2023-05-12T09:55:36;98806.47;;;16.99;77.44
8318;BME280;4196;48.926;8.964;2023-05-12T09:58:25;98794.28;;;16.98;76.73
8318;BME280;4196;48.926;8.964;2023-05-12T10:01:17;98803.03;;;17.48;73.39
8318;BME280;4196;48.926;8.964;2023-05-12T10:04:09;98819.59;;;17.75;73.28
8318;BME280;4196;48.926;8.964;2023-05-12T10:06:57;98820.31;;;17.79;69.31
8318;BME280;4196;48.926;8.964;2023-05-12T10:09:45;98813.56;;;17.72;69.83
8318;BME280;4196;48.926;8.964;2023-05-12T10:12:33;98802.88;;;17.78;68.97
8318;BME280;4196;48.926;8.964;2023-05-12T10:15:21;98811.09;;;17.92;68.60
8318;BME280;4196;48.926;8.964;2023-05-12T10:18:10;98804.31;;;18.33;72.35
8318;BME280;4196;48.926;8.964;2023-05-12T10:20:58;98818.03;;;18.64;67.17
8318;BME280;4196;48.926;8.964;2023-05-12T10:23:46;98788.31;;;18.85;66.34
8318;BME280;4196;48.926;8.964;2023-05-12T10:26:36;98811.47;;;18.97;66.91
8318;BME280;4196;48.926;8.964;2023-05-12T10:29:23;98816.91;;;18.69;66.83
8318;BME280;4196;48.926;8.964;2023-05-12T10:32:17;98801.47;;;18.40;68.24
8318;BME280;4196;48.926;8.964;2023-05-12T10:35:08;98802.97;;;17.25;72.08
8318;BME280;4196;48.926;8.964;2023-05-12T10:37:55;98822.59;;;17.38;73.10
8318;BME280;4196;48.926;8.964;2023-05-12T10:40:55;98819.72;;;17.19;72.98
8318;BME280;4196;48.926;8.964;2023-05-12T10:43:47;98819.81;;;17.43;73.96
8318;BME280;4196;48.926;8.964;2023-05-12T10:46:35;98820.31;;;17.54;72.86
8318;BME280;4196;48.926;8.964;2023-05-12T10:49:31;98813.34;;;17.78;71.08
8318;BME280;4196;48.926;8.964;2023-05-12T10:52:19;98791.97;;;17.90;71.61
8318;BME280;4196;48.926;8.964;2023-05-12T10:55:10;98804.38;;;18.32;69.14
8318;BME280;4196;48.926;8.964;2023-05-12T10:58:07;98782.75;;;18.03;68.38
8318;BME280;4196;48.926;8.964;2023-05-12T11:01:03;98820.31;;;18.26;67.72
8318;BME280;4196;48.926;8.964;2023-05-12T11:03:51;98776.38;;;17.87;69.63
8318;BME280;4196;48.926;8.964;2023-05-12T11:06:39;98794.31;;;17.73;69.98
8318;BME280;4196;48.926;8.964;2023-05-12T11:09:26;98795.72;;;17.33;69.54
8318;BME280;4196;48.926;8.964;2023-05-12T11:12:13;98799.19;;;17.07;71.76
8318;BME280;4196;48.926;8.964;2023-05-12T11:15:00;98809.50;;;17.38;72.99
8318;BME280;4196;48.926;8.964;2023-05-12T11:17:47;98814.50;;;17.44;73.12
8318;BME280;4196;48.926;8.964;2023-05-12T11:20:33;98798.03;;;17.15;73.53
8318;BME280;4196;48.926;8.964;2023-05-12T11:23:27;98821.97;;;17.30;74.67
8318;BME280;4196;48.926;8.964;2023-05-12T11:26:17;98743.13;;;16.89;73.73
8318;BME280;4196;48.926;8.964;2023-05-12T11:29:04;98809.19;;;17.47;70.92
8318;BME280;4196;48.926;8.964;2023-05-12T11:31:51;98827.59;;;17.44;72.79
8318;BME280;4196;48.926;8.964;2023-05-12T11:34:37;98817.78;;;16.99;74.81
8318;BME280;4196;48.926;8.964;2023-05-12T11:37:24;98815.22;;;16.98;75.17
8318;BME280;4196;48.926;8.964;2023-05-12T11:40:12;98817.56;;;16.49;77.79
8318;BME280;4196;48.926;8.964;2023-05-12T11:43:08;98791.19;;;15.99;81.28
8318;BME280;4196;48.926;8.964;2023-05-12T11:45:55;98839.91;;;16.00;85.97
8318;BME280;4196;48.926;8.964;2023-05-12T11:48:56;98832.16;;;15.66;89.37
8318;BME280;4196;48.926;8.964;2023-05-12T11:51:43;98832.38;;;15.22;93.42
8318;BME280;4196;48.926;8.964;2023-05-12T11:54:29;98817.31;;;15.34;93.01
8318;BME280;4196;48.926;8.964;2023-05-12T11:57:27;98835.81;;;15.57;92.09
8318;BME280;4196;48.926;8.964;2023-05-12T12:00:14;98820.81;;;15.33;94.61
8318;BME280;4196;48.926;8.964;2023-05-12T12:03:08;98803.59;;;15.26;92.00
8318;BME280;4196;48.926;8.964;2023-05-12T12:06:00;98824.75;;;15.82;93.30
8318;BME280;4196;48.926;8.964;2023-05-12T12:08:54;98847.50;;;16.39;85.76
8318;BME280;4196;48.926;8.964;2023-05-12T12:11:41;98822.44;;;16.02;83.31
8318;BME280;4196;48.926;8.964;2023-05-12T12:14:27;98791.81;;;16.37;79.57
8318;BME280;4196;48.926;8.964;2023-05-12T12:17:13;98831.59;;;16.76;78.14
8318;BME280;4196;48.926;8.964;2023-05-12T12:19:59;98803.56;;;16.52;77.19
8318;BME280;4196;48.926;8.964;2023-05-12T12:22:46;98843.84;;;16.45;81.34
8318;BME280;4196;48.926;8.964;2023-05-12T12:25:33;98821.00;;;16.51;79.57
8318;BME280;4196;48.926;8.964;2023-05-12T12:28:19;98829.44;;;16.59;79.62
8318;BME280;4196;48.926;8.964;2023-05-12T12:31:06;98819.94;;;16.29;80.23
8318;BME280;4196;48.926;8.964;2023-05-12T12:33:53;98844.16;;;16.34;80.17
8318;BME280;4196;48.926;8.964;2023-05-12T12:36:39;98817.56;;;16.19;82.05
8318;BME280;4196;48.926;8.964;2023-05-12T12:39:26;98860.13;;;16.84;78.94
8318;BME280;4196;48.926;8.964;2023-05-12T12:42:13;98850.84;;;17.00;78.73
8318;BME280;4196;48.926;8.964;2023-05-12T12:45:04;98808.72;;;17.09;74.12
8318;BME280;4196;48.926;8.964;2023-05-12T12:47:51;98850.59;;;17.09;72.96
8318;BME280;4196;48.926;8.964;2023-05-12T12:50:39;98846.22;;;16.82;76.90
8318;BME280;4196;48.926;8.964;2023-05-12T12:53:26;98824.59;;;16.77;78.13
8318;BME280;4196;48.926;8.964;2023-05-12T12:56:12;98854.84;;;17.12;75.87
8318;BME280;4196;48.926;8.964;2023-05-12T12:58:59;98864.09;;;17.74;71.99
8318;BME280;4196;48.926;8.964;2023-05-12T13:01:45;98865.06;;;17.46;70.78
8318;BME280;4196;48.926;8.964;2023-05-12T13:04:32;98859.94;;;16.90;72.75
8318;BME280;4196;48.926;8.964;2023-05-12T13:07:18;98857.59;;;17.07;72.09
8318;BME280;4196;48.926;8.964;2023-05-12T13:10:05;98851.06;;;16.94;73.95
8318;BME280;4196;48.926;8.964;2023-05-12T13:12:51;98854.06;;;17.08;76.26
8318;BME280;4196;48.926;8.964;2023-05-12T13:15:39;98858.81;;;16.97;76.76
8318;BME280;4196;48.926;8.964;2023-05-12T13:18:26;98859.97;;;16.88;77.11
8318;BME280;4196;48.926;8.964;2023-05-12T13:21:13;98812.75;;;16.63;76.59
8318;BME280;4196;48.926;8.964;2023-05-12T13:23:59;98856.97;;;16.71;77.56
8318;BME280;4196;48.926;8.964;2023-05-12T13:26:46;98843.03;;;16.42;78.38
8318;BME280;4196;48.926;8.964;2023-05-12T13:29:32;98866.25;;;16.53;79.93
8318;BME280;4196;48.926;8.964;2023-05-12T13:32:19;98823.00;;;16.13;79.78
8318;BME280;4196;48.926;8.964;2023-05-12T13:35:06;98835.78;;;16.23;80.41
8318;BME280;4196;48.926;8.964;2023-05-12T13:37:54;98861.44;;;16.38;81.93
8318;BME280;4196;48.926;8.964;2023-05-12T13:40:41;98867.13;;;16.23;81.78
8318;BME280;4196;48.926;8.964;2023-05-12T13:43:28;98825.09;;;16.01;80.57
8318;BME280;4196;48.926;8.964;2023-05-12T13:46:14;98863.06;;;16.42;81.64
8318;BME280;4196;48.926;8.964;2023-05-12T13:49:00;98868.50;;;16.65;81.25
8318;BME280;4196;48.926;8.964;2023-05-12T13:51:47;98871.44;;;16.24;81.47
8318;BME280;4196;48.926;8.964;2023-05-12T13:54:34;98859.84;;;16.34;81.77
8318;BME280;4196;48.926;8.964;2023-05-12T13:57:20;98866.56;;;16.13;82.94
8318;BME280;4196;48.926;8.964;2023-05-12T14:00:07;98799.78;;;15.72;85.21
8318;BME280;4196;48.926;8.964;2023-05-12T14:03:02;98839.78;;;16.05;83.49
8318;BME280;4196;48.926;8.964;2023-05-12T14:05:49;98799.81;;;16.01;83.54
8318;BME280;4196;48.926;8.964;2023-05-12T14:08:35;98812.09;;;16.29;82.35
8318;BME280;4196;48.926;8.964;2023-05-12T14:11:22;98859.56;;;16.73;80.82
8318;BME280;4196;48.926;8.964;2023-05-12T14:14:09;98828.44;;;16.35;81.15
8318;BME280;4196;48.926;8.964;2023-05-12T14:16:55;98853.59;;;16.39;79.42
8318;BME280;4196;48.926;8.964;2023-05-12T14:19:42;98859.84;;;16.34;78.04
8318;BME280;4196;48.926;8.964;2023-05-12T14:22:28;98853.59;;;16.39;78.10
8318;BME280;4196;48.926;8.964;2023-05-12T14:25:14;98856.97;;;16.13;76.92
8318;BME280;4196;48.926;8.964;2023-05-12T14:28:01;98861.06;;;16.22;78.48
8318;BME280;4196;48.926;8.964;2023-05-12T14:30:49;98869.63;;;15.96;76.40
8318;BME280;4196;48.926;8.964;2023-05-12T14:33:36;98864.13;;;16.05;77.97
8318;BME280;4196;48.926;8.964;2023-05-12T14:36:22;98860.78;;;16.00;79.81
8318;BME280;4196;48.926;8.964;2023-05-12T14:39:08;98838.13;;;16.02;81.16
8318;BME280;4196;48.926;8.964;2023-05-12T14:41:55;98855.50;;;16.03;79.99
8318;BME280;4196;48.926;8.964;2023-05-12T14:44:41;98851.50;;;16.21;79.54
8318;BME280;4196;48.926;8.964;2023-05-12T14:47:28;98853.84;;;16.30;79.37
8318;BME280;4196;48.926;8.964;2023-05-12T14:50:14;98865.78;;;16.09;79.82
8318;BME280;4196;48.926;8.964;2023-05-12T14:53:00;98831.00;;;16.07;80.54
8318;BME280;4196;48.926;8.964;2023-05-12T14:55:48;98857.69;;;16.48;78.01
8318;BME280;4196;48.926;8.964;2023-05-12T14:58:34;98866.91;;;16.60;78.09
8318;BME280;4196;48.926;8.964;2023-05-12T15:01:21;98871.34;;;16.27;78.88
8318;BME280;4196;48.926;8.964;2023-05-12T15:04:07;98852.59;;;16.14;80.17
8318;BME280;4196;48.926;8.964;2023-05-12T15:06:53;98845.81;;;16.07;82.13
8318;BME280;4196;48.926;8.964;2023-05-12T15:09:40;98850.91;;;16.11;82.29